PWSweather.com
Personal Weather Stations
Station Observations
BARMORENO
El Ranal, Torre Del CampoES 23640

El RanalTorre Del CampoES 23640

Lat: 37.7683675, Lon: -3.9027072

Elevation: 2198.162

Station Type: PCE-FWS 20

http://www.bartolomemoreno.com/tiempo

Latest ConditionsUpdated 5:05:04 AM GMT+01:01 Wednesday, Aug 21, 2019
Currently Today's Max Today's Min Today's Average
Temperature 72.3°F22.4°C 79.5°F26.4°C 72.3°F22.4°C 74.5°F23.6°C
Dew Point 47.3°F8.5°C 60.9°F16.1°C 36.4°F2.4°C 45.2°F7.3°C
Winds 1.3 mph N2.1 kmh N 5.5 mph -8.9 kmh - - 2.9 mph 4.7 kmh
Wind Gusts 3.8 mph6.1 kmh 9.2 mph14.8 kmh - -
Humidity 41% 63% 22% 37%
Pressure 30.16 in1021.3 mb 30.17 in1021.7 mb 30.15 in1021.0 mb -
Hour Temp Dew Point Humidity Winds Wind Gusts Pressure Precip Precip Rate Daily Precip Total
05:05 AM 72.3°F22.4°C 47.3°F8.5°C 41% 1.3 mph N2.1 kmh N 3.8 mph6.1 kmh 30.16 in1021.3 mb 0.00 in0.0 mm 0.00 in0.0 mm 0.00 in0.0 mm
05:00 AM 72.7°F22.6°C 48.3°F9.1°C 42% 1.3 mph N2.1 kmh N 5.4 mph8.7 kmh 30.16 in1021.3 mb 0.00 in0.0 mm 0.00 in0.0 mm 0.00 in0.0 mm
04:55 AM 72.5°F22.5°C 48.1°F8.9°C 42% 1.3 mph NW2.1 kmh NW 5.4 mph8.7 kmh 30.16 in1021.3 mb 0.00 in0.0 mm 0.00 in0.0 mm 0.00 in0.0 mm
04:50 AM 72.5°F22.5°C 45.5°F7.5°C 38% 0.9 mph WSW1.4 kmh WSW 2.2 mph3.5 kmh 30.16 in1021.3 mb 0.00 in0.0 mm 0.00 in0.0 mm 0.00 in0.0 mm
04:45 AM 72.5°F22.5°C 44.1°F6.7°C 36% 0.9 mph WNW1.4 kmh WNW 3.1 mph5.0 kmh 30.16 in1021.3 mb 0.00 in0.0 mm 0.00 in0.0 mm 0.00 in0.0 mm
04:40 AM 72.7°F22.6°C 43.5°F6.4°C 35% 1.2 mph NW1.9 kmh NW 3.8 mph6.1 kmh 30.16 in1021.3 mb 0.00 in0.0 mm 0.00 in0.0 mm 0.00 in0.0 mm
04:35 AM 72.7°F22.6°C 42.7°F5.9°C 34% 1.1 mph SW1.8 kmh SW 3.8 mph6.1 kmh 30.16 in1021.3 mb 0.00 in0.0 mm 0.00 in0.0 mm 0.00 in0.0 mm
04:30 AM 72.9°F22.7°C 43.6°F6.4°C 35% 0.6 mph E1.0 kmh E 3.1 mph5.0 kmh 30.16 in1021.3 mb 0.00 in0.0 mm 0.00 in0.0 mm 0.00 in0.0 mm
04:25 AM 72.9°F22.7°C 43.6°F6.4°C 35% 0.5 mph NW0.8 kmh NW 2.2 mph3.5 kmh 30.15 in1021.0 mb 0.00 in0.0 mm 0.00 in0.0 mm 0.00 in0.0 mm
04:20 AM 72.9°F22.7°C 44.4°F6.9°C 36% 0.7 mph WSW1.1 kmh WSW 2.2 mph3.5 kmh 30.16 in1021.3 mb 0.00 in0.0 mm 0.00 in0.0 mm 0.00 in0.0 mm
04:15 AM 73.0°F22.8°C 43.8°F6.6°C 35% 1.0 mph WNW1.6 kmh WNW 3.1 mph5.0 kmh 30.16 in1021.3 mb 0.00 in0.0 mm 0.00 in0.0 mm 0.00 in0.0 mm
04:05 AM 73.2°F22.9°C 47.5°F8.6°C 40% 0.7 mph NW1.1 kmh NW 3.8 mph6.1 kmh 30.16 in1021.3 mb 0.00 in0.0 mm 0.00 in0.0 mm 0.00 in0.0 mm
04:00 AM 73.4°F23.0°C 50.2°F10.1°C 44% 0.9 mph SW1.4 kmh SW 2.2 mph3.5 kmh 30.16 in1021.3 mb 0.00 in0.0 mm 0.00 in0.0 mm 0.00 in0.0 mm
03:55 AM 73.4°F23.0°C 51.4°F10.8°C 46% 1.3 mph N2.1 kmh N 3.8 mph6.1 kmh 30.16 in1021.3 mb 0.00 in0.0 mm 0.00 in0.0 mm 0.00 in0.0 mm
03:50 AM 73.4°F23.0°C 51.4°F10.8°C 46% 1.2 mph NNE1.9 kmh NNE 4.5 mph7.2 kmh 30.16 in1021.3 mb 0.00 in0.0 mm 0.00 in0.0 mm 0.00 in0.0 mm
03:45 AM 73.4°F23.0°C 56.3°F13.5°C 55% 2.1 mph SE3.4 kmh SE 6.9 mph11.1 kmh 30.16 in1021.3 mb 0.00 in0.0 mm 0.00 in0.0 mm 0.00 in0.0 mm
03:40 AM 73.4°F23.0°C 56.8°F13.8°C 56% 4.1 mph S6.6 kmh S 8.3 mph13.4 kmh 30.16 in1021.3 mb 0.00 in0.0 mm 0.00 in0.0 mm 0.00 in0.0 mm
03:35 AM 73.8°F23.2°C 57.6°F14.2°C 57% 5.5 mph S8.9 kmh S 9.2 mph14.8 kmh 30.16 in1021.3 mb 0.00 in0.0 mm 0.00 in0.0 mm 0.00 in0.0 mm
03:30 AM 73.8°F23.2°C 58.1°F14.5°C 58% 5.5 mph S8.9 kmh S 9.2 mph14.8 kmh 30.16 in1021.3 mb 0.00 in0.0 mm 0.00 in0.0 mm 0.00 in0.0 mm
03:25 AM 74.3°F23.5°C 60.0°F15.6°C 61% 4.9 mph S7.9 kmh S 7.6 mph12.2 kmh 30.16 in1021.3 mb 0.00 in0.0 mm 0.00 in0.0 mm 0.00 in0.0 mm
03:20 AM 74.3°F23.5°C 60.9°F16.1°C 63% 4.6 mph S7.4 kmh S 6.9 mph11.1 kmh 30.16 in1021.3 mb 0.00 in0.0 mm 0.00 in0.0 mm 0.00 in0.0 mm
03:15 AM 74.1°F23.4°C 60.3°F15.7°C 62% 4.3 mph S6.9 kmh S 6.9 mph11.1 kmh 30.16 in1021.3 mb 0.00 in0.0 mm 0.00 in0.0 mm 0.00 in0.0 mm
03:10 AM 73.8°F23.2°C 58.6°F14.8°C 59% 4.3 mph S6.9 kmh S 8.3 mph13.4 kmh 30.16 in1021.3 mb 0.00 in0.0 mm 0.00 in0.0 mm 0.00 in0.0 mm
03:05 AM 74.1°F23.4°C 57.9°F14.4°C 57% 4.9 mph S7.9 kmh S 8.3 mph13.4 kmh 30.16 in1021.3 mb 0.00 in0.0 mm 0.00 in0.0 mm 0.00 in0.0 mm
03:00 AM 73.9°F23.3°C 57.3°F14.1°C 56% 4.7 mph S7.6 kmh S 8.3 mph13.4 kmh 30.16 in1021.3 mb 0.00 in0.0 mm 0.00 in0.0 mm 0.00 in0.0 mm
02:55 AM 74.1°F23.4°C 57.0°F13.9°C 55% 4.6 mph S7.4 kmh S 7.6 mph12.2 kmh 30.16 in1021.3 mb 0.00 in0.0 mm 0.00 in0.0 mm 0.00 in0.0 mm
02:50 AM 74.1°F23.4°C 56.4°F13.6°C 54% 4.9 mph S7.9 kmh S 7.6 mph12.2 kmh 30.16 in1021.3 mb 0.00 in0.0 mm 0.00 in0.0 mm 0.00 in0.0 mm
02:45 AM 74.1°F23.4°C 53.8°F12.1°C 49% 4.6 mph S7.4 kmh S 7.6 mph12.2 kmh 30.16 in1021.3 mb 0.00 in0.0 mm 0.00 in0.0 mm 0.00 in0.0 mm
02:40 AM 73.9°F23.3°C 51.9°F11.1°C 46% 4.5 mph S7.2 kmh S 7.6 mph12.2 kmh 30.16 in1021.3 mb 0.00 in0.0 mm 0.00 in0.0 mm 0.00 in0.0 mm
02:35 AM 73.8°F23.2°C 51.1°F10.6°C 45% 4.5 mph S7.2 kmh S 7.6 mph12.2 kmh 30.16 in1021.3 mb 0.00 in0.0 mm 0.00 in0.0 mm 0.00 in0.0 mm
02:30 AM 73.8°F23.2°C 48.6°F9.2°C 41% 4.5 mph S7.2 kmh S 7.6 mph12.2 kmh 30.16 in1021.3 mb 0.00 in0.0 mm 0.00 in0.0 mm 0.00 in0.0 mm
02:25 AM 74.1°F23.4°C 47.6°F8.7°C 39% 4.3 mph S6.9 kmh S 7.6 mph12.2 kmh 30.16 in1021.3 mb 0.00 in0.0 mm 0.00 in0.0 mm 0.00 in0.0 mm
02:20 AM 74.5°F23.6°C 45.8°F7.7°C 36% 4.2 mph S6.8 kmh S 8.3 mph13.4 kmh 30.16 in1021.3 mb 0.00 in0.0 mm 0.00 in0.0 mm 0.00 in0.0 mm
02:15 AM 74.5°F23.6°C 45.1°F7.3°C 35% 4.7 mph S7.6 kmh S 8.3 mph13.4 kmh 30.16 in1021.3 mb 0.00 in0.0 mm 0.00 in0.0 mm 0.00 in0.0 mm
02:10 AM 74.5°F23.6°C 42.7°F5.9°C 32% 4.1 mph S6.6 kmh S 7.6 mph12.2 kmh 30.16 in1021.3 mb 0.00 in0.0 mm 0.00 in0.0 mm 0.00 in0.0 mm
02:05 AM 74.1°F23.4°C 40.7°F4.8°C 30% 3.2 mph S5.1 kmh S 6.0 mph9.7 kmh 30.16 in1021.3 mb 0.00 in0.0 mm 0.00 in0.0 mm 0.00 in0.0 mm
02:00 AM 73.8°F23.2°C 39.6°F4.2°C 29% 3.1 mph S5.0 kmh S 5.4 mph8.7 kmh 30.16 in1021.3 mb 0.00 in0.0 mm 0.00 in0.0 mm 0.00 in0.0 mm
01:55 AM 73.8°F23.2°C 40.4°F4.7°C 30% 2.7 mph S4.3 kmh S 5.4 mph8.7 kmh 30.16 in1021.3 mb 0.00 in0.0 mm 0.00 in0.0 mm 0.00 in0.0 mm
01:50 AM 73.8°F23.2°C 39.6°F4.2°C 29% 3.1 mph S5.0 kmh S 6.9 mph11.1 kmh 30.16 in1021.3 mb 0.00 in0.0 mm 0.00 in0.0 mm 0.00 in0.0 mm
01:45 AM 73.4°F23.0°C 39.2°F4.0°C 29% 3.4 mph S5.5 kmh S 6.9 mph11.1 kmh 30.16 in1021.3 mb 0.00 in0.0 mm 0.00 in0.0 mm 0.00 in0.0 mm
01:40 AM 73.4°F23.0°C 37.4°F3.0°C 27% 2.1 mph S3.4 kmh S 6.0 mph9.7 kmh 30.17 in1021.7 mb 0.00 in0.0 mm 0.00 in0.0 mm 0.00 in0.0 mm
01:35 AM 73.4°F23.0°C 37.4°F3.0°C 27% 1.7 mph S2.7 kmh S 4.5 mph7.2 kmh 30.17 in1021.7 mb 0.00 in0.0 mm 0.00 in0.0 mm 0.00 in0.0 mm
01:30 AM 73.8°F23.2°C 37.7°F3.2°C 27% 2.4 mph S3.9 kmh S 4.5 mph7.2 kmh 30.16 in1021.3 mb 0.00 in0.0 mm 0.00 in0.0 mm 0.00 in0.0 mm
01:25 AM 74.3°F23.5°C 37.2°F2.9°C 26% 2.4 mph S3.9 kmh S 5.4 mph8.7 kmh 30.16 in1021.3 mb 0.00 in0.0 mm 0.00 in0.0 mm 0.00 in0.0 mm
01:20 AM 74.3°F23.5°C 37.2°F2.9°C 26% 2.5 mph S4.0 kmh S 5.4 mph8.7 kmh 30.16 in1021.3 mb 0.00 in0.0 mm 0.00 in0.0 mm 0.00 in0.0 mm
01:15 AM 74.5°F23.6°C 37.4°F3.0°C 26% 2.6 mph S4.2 kmh S 4.5 mph7.2 kmh 30.16 in1021.3 mb 0.00 in0.0 mm 0.00 in0.0 mm 0.00 in0.0 mm
01:10 AM 74.7°F23.7°C 37.5°F3.1°C 26% 2.4 mph S3.9 kmh S 5.4 mph8.7 kmh 30.16 in1021.3 mb 0.00 in0.0 mm 0.00 in0.0 mm 0.00 in0.0 mm
01:05 AM 75.0°F23.9°C 37.8°F3.2°C 26% 2.8 mph S4.5 kmh S 5.4 mph8.7 kmh 30.16 in1021.3 mb 0.00 in0.0 mm 0.00 in0.0 mm 0.00 in0.0 mm
01:00 AM 75.4°F24.1°C 37.1°F2.8°C 25% 2.9 mph S4.7 kmh S 5.4 mph8.7 kmh 30.16 in1021.3 mb 0.00 in0.0 mm 0.00 in0.0 mm 0.00 in0.0 mm
12:55 AM 75.9°F24.4°C 36.6°F2.6°C 24% 3.0 mph S4.8 kmh S 6.0 mph9.7 kmh 30.16 in1021.3 mb 0.00 in0.0 mm 0.00 in0.0 mm 0.00 in0.0 mm
12:50 AM 76.1°F24.5°C 36.7°F2.6°C 24% 3.4 mph S5.5 kmh S 6.0 mph9.7 kmh 30.16 in1021.3 mb 0.00 in0.0 mm 0.00 in0.0 mm 0.00 in0.0 mm
12:45 AM 76.5°F24.7°C 37.0°F2.8°C 24% 3.7 mph S6.0 kmh S 6.9 mph11.1 kmh 30.16 in1021.3 mb 0.00 in0.0 mm 0.00 in0.0 mm 0.00 in0.0 mm
12:40 AM 77.0°F25.0°C 36.4°F2.4°C 23% 2.9 mph S4.7 kmh S 6.9 mph11.1 kmh 30.16 in1021.3 mb 0.00 in0.0 mm 0.00 in0.0 mm 0.00 in0.0 mm
12:35 AM 77.5°F25.3°C 36.9°F2.7°C 23% 2.5 mph S4.0 kmh S 7.6 mph12.2 kmh 30.16 in1021.3 mb 0.00 in0.0 mm 0.00 in0.0 mm 0.00 in0.0 mm
12:30 AM 77.7°F25.4°C 37.0°F2.8°C 23% 3.5 mph S5.6 kmh S 8.3 mph13.4 kmh 30.16 in1021.3 mb 0.00 in0.0 mm 0.00 in0.0 mm 0.00 in0.0 mm
12:25 AM 78.4°F25.8°C 37.6°F3.1°C 23% 2.8 mph S4.5 kmh S 8.3 mph13.4 kmh 30.16 in1021.3 mb 0.00 in0.0 mm 0.00 in0.0 mm 0.00 in0.0 mm
12:20 AM 79.2°F26.2°C 37.1°F2.8°C 22% 1.8 mph SSW2.9 kmh SSW 5.4 mph8.7 kmh 30.16 in1021.3 mb 0.00 in0.0 mm 0.00 in0.0 mm 0.00 in0.0 mm
12:15 AM 78.8°F26.0°C 36.8°F2.7°C 22% 2.5 mph S4.0 kmh S 5.4 mph8.7 kmh 30.15 in1021.0 mb 0.00 in0.0 mm 0.00 in0.0 mm 0.00 in0.0 mm
12:10 AM 78.8°F26.0°C 36.8°F2.7°C 22% 3.2 mph S5.1 kmh S 6.9 mph11.1 kmh 30.15 in1021.0 mb 0.00 in0.0 mm 0.00 in0.0 mm 0.00 in0.0 mm
12:05 AM 79.2°F26.2°C 37.1°F2.8°C 22% 2.6 mph S4.2 kmh S 6.9 mph11.1 kmh 30.16 in1021.3 mb 0.00 in0.0 mm 0.00 in0.0 mm 0.00 in0.0 mm
12:00 AM 79.5°F26.4°C 37.4°F3.0°C 22% 1.8 mph S2.9 kmh S 4.5 mph7.2 kmh 30.15 in1021.0 mb 0.00 in0.0 mm 0.00 in0.0 mm 0.00 in0.0 mm